createdAt,value
2023-03-16T00:00:16.517Z,100.00
2023-03-16T00:02:43.797Z,100.00
2023-03-16T00:05:12.771Z,100.00
2023-03-16T00:07:39.689Z,100.00
2023-03-16T00:10:06.990Z,100.00
2023-03-16T00:12:34.599Z,100.00
2023-03-16T00:15:02.149Z,100.00
2023-03-16T00:17:28.810Z,100.00
2023-03-16T00:19:57.170Z,100.00
2023-03-16T00:22:29.550Z,100.00
2023-03-16T00:24:56.726Z,100.00
2023-03-16T00:27:25.333Z,100.00
2023-03-16T00:29:57.010Z,100.00
2023-03-16T00:32:29.747Z,100.00
2023-03-16T00:34:56.650Z,100.00
2023-03-16T00:37:24.808Z,100.00
2023-03-16T00:39:52.230Z,100.00
2023-03-16T00:42:19.924Z,100.00
2023-03-16T00:44:46.592Z,100.00
2023-03-16T00:47:14.373Z,100.00
2023-03-16T00:49:43.248Z,100.00
2023-03-16T00:52:14.603Z,100.00
2023-03-16T00:54:43.510Z,100.00
2023-03-16T00:57:12.130Z,100.00
2023-03-16T00:59:38.766Z,100.00
2023-03-16T01:02:07.156Z,100.00
2023-03-16T01:04:35.824Z,100.00
2023-03-16T01:07:04.835Z,100.00
2023-03-16T01:09:36.801Z,100.00
2023-03-16T01:12:06.192Z,100.00
2023-03-16T01:14:35.516Z,100.00
2023-03-16T01:17:05.058Z,100.00
2023-03-16T01:19:38.429Z,100.00
2023-03-16T01:22:06.142Z,100.00
2023-03-16T01:24:34.829Z,100.00
2023-03-16T01:27:02.718Z,100.00
2023-03-16T01:29:29.760Z,100.00
2023-03-16T01:31:58.768Z,100.00
2023-03-16T01:34:25.323Z,100.00
2023-03-16T01:36:52.278Z,100.00
2023-03-16T01:39:28.724Z,100.00
2023-03-16T01:41:55.410Z,100.00
2023-03-16T01:44:28.152Z,100.00
2023-03-16T01:46:55.271Z,100.00
2023-03-16T01:49:29.042Z,100.00
2023-03-16T01:52:22.588Z,100.00
2023-03-16T01:54:55.249Z,100.00
2023-03-16T01:57:24.102Z,100.00
2023-03-16T01:59:54.914Z,100.00
2023-03-16T02:02:25.398Z,100.00
2023-03-16T02:05:04.575Z,100.00
2023-03-16T02:07:35.830Z,100.00
2023-03-16T02:10:04.597Z,100.00
2023-03-16T02:12:31.140Z,100.00
2023-03-16T02:14:59.929Z,100.00
2023-03-16T02:17:32.127Z,100.00
2023-03-16T02:20:26.390Z,100.00
2023-03-16T02:22:54.339Z,100.00
2023-03-16T02:25:25.181Z,100.00
2023-03-16T02:27:57.470Z,100.00
2023-03-16T02:30:24.757Z,100.00
2023-03-16T02:33:04.844Z,100.00
2023-03-16T02:35:32.221Z,100.00
2023-03-16T02:37:58.711Z,100.00
2023-03-16T02:40:32.674Z,100.00
2023-03-16T02:43:07.699Z,100.00
2023-03-16T02:45:46.394Z,100.00
2023-03-16T02:48:23.517Z,100.00
2023-03-16T02:50:53.018Z,100.00
2023-03-16T02:53:20.756Z,100.00
2023-03-16T02:55:47.654Z,100.00
2023-03-16T02:58:14.993Z,100.00
2023-03-16T03:00:42.464Z,100.00
2023-03-16T03:03:09.482Z,100.00
2023-03-16T03:05:38.051Z,100.00
2023-03-16T03:08:05.801Z,100.00
2023-03-16T03:10:32.572Z,100.00
2023-03-16T03:12:59.317Z,100.00
2023-03-16T03:15:26.051Z,100.00
2023-03-16T03:18:07.205Z,100.00
2023-03-16T03:20:33.722Z,100.00
2023-03-16T03:23:00.753Z,100.00
2023-03-16T03:25:27.808Z,100.00
2023-03-16T03:27:55.167Z,100.00
2023-03-16T03:30:24.682Z,100.00
2023-03-16T03:32:52.425Z,100.00
2023-03-16T03:35:21.277Z,100.00
2023-03-16T03:37:48.083Z,100.00
2023-03-16T03:40:17.448Z,100.00
2023-03-16T03:42:47.566Z,100.00
2023-03-16T03:45:14.668Z,100.00
2023-03-16T03:47:43.319Z,100.00
2023-03-16T03:50:14.152Z,100.00
2023-03-16T03:52:50.654Z,100.00
2023-03-16T03:55:17.257Z,100.00
2023-03-16T03:57:43.993Z,100.00
2023-03-16T04:00:13.360Z,100.00
2023-03-16T04:02:40.747Z,100.00
2023-03-16T04:05:14.385Z,100.00
2023-03-16T04:07:41.427Z,100.00
2023-03-16T04:10:11.689Z,100.00
2023-03-16T04:12:41.193Z,100.00
2023-03-16T04:15:12.452Z,100.00
2023-03-16T04:18:00.272Z,100.00
2023-03-16T04:20:27.302Z,100.00
2023-03-16T04:22:58.542Z,100.00
2023-03-16T04:25:27.455Z,100.00
2023-03-16T04:27:54.482Z,100.00
2023-03-16T04:30:23.916Z,100.00
2023-03-16T04:32:54.331Z,100.00
2023-03-16T04:35:22.216Z,100.00
2023-03-16T04:37:52.766Z,100.00
2023-03-16T04:40:24.417Z,100.00
2023-03-16T04:42:59.399Z,100.00
2023-03-16T04:45:26.238Z,100.00
2023-03-16T04:47:56.596Z,100.00
2023-03-16T04:50:23.183Z,100.00
2023-03-16T04:52:52.862Z,100.00
2023-03-16T04:55:20.100Z,100.00
2023-03-16T04:57:46.600Z,100.00
2023-03-16T05:00:18.919Z,100.00
2023-03-16T05:02:53.080Z,100.00
2023-03-16T05:05:21.581Z,100.00
2023-03-16T05:07:49.193Z,100.00
2023-03-16T05:10:18.878Z,100.00
2023-03-16T05:12:46.422Z,100.00
2023-03-16T05:15:13.876Z,100.00
2023-03-16T05:17:42.447Z,100.00
2023-03-16T05:20:14.716Z,100.00
2023-03-16T05:22:46.388Z,100.00
2023-03-16T05:25:18.236Z,100.00
2023-03-16T05:27:50.373Z,100.00
2023-03-16T05:30:24.178Z,100.00
2023-03-16T05:32:53.179Z,100.00
2023-03-16T05:35:23.054Z,100.00
2023-03-16T05:37:57.151Z,100.00
2023-03-16T05:40:24.144Z,100.00
2023-03-16T05:43:00.347Z,100.00
2023-03-16T05:45:28.578Z,100.00
2023-03-16T05:48:06.668Z,100.00
2023-03-16T05:50:37.057Z,100.00
2023-03-16T05:53:04.240Z,100.00
2023-03-16T05:55:30.737Z,100.00
2023-03-16T05:58:01.002Z,100.00
2023-03-16T06:00:30.042Z,100.00
2023-03-16T06:03:08.868Z,100.00
2023-03-16T06:05:37.722Z,100.00
2023-03-16T06:08:05.338Z,100.00
2023-03-16T06:10:34.252Z,100.00
2023-03-16T06:13:00.822Z,100.00
2023-03-16T06:15:30.432Z,100.00
2023-03-16T06:17:59.339Z,100.00
2023-03-16T06:20:26.093Z,100.00
2023-03-16T06:22:53.099Z,100.00
2023-03-16T06:25:19.700Z,100.00
2023-03-16T06:27:47.656Z,100.00
2023-03-16T06:30:17.569Z,100.00
2023-03-16T06:32:45.724Z,100.00
2023-03-16T06:35:13.403Z,100.00
2023-03-16T06:37:45.252Z,100.00
2023-03-16T06:40:31.040Z,100.00
2023-03-16T06:42:57.604Z,100.00
2023-03-16T06:45:25.651Z,100.00
2023-03-16T06:47:55.151Z,100.00
2023-03-16T06:50:21.830Z,100.00
2023-03-16T06:52:48.345Z,100.00
2023-03-16T06:55:15.015Z,100.00
2023-03-16T06:57:45.405Z,100.00
2023-03-16T07:00:15.393Z,100.00
2023-03-16T07:02:43.602Z,100.00
2023-03-16T07:05:14.792Z,100.00
2023-03-16T07:07:43.615Z,100.00
2023-03-16T07:10:13.322Z,100.00
2023-03-16T07:12:40.626Z,100.00
2023-03-16T07:15:07.448Z,100.00
2023-03-16T07:17:34.818Z,100.00
2023-03-16T07:20:10.487Z,100.00
2023-03-16T07:22:38.164Z,100.00
2023-03-16T07:25:07.353Z,100.00
2023-03-16T07:27:34.461Z,100.00
2023-03-16T07:30:05.743Z,94.03
2023-03-16T07:32:34.674Z,74.16
2023-03-16T07:35:02.092Z,68.59
2023-03-16T07:37:32.273Z,66.67
2023-03-16T07:40:01.062Z,69.38
2023-03-16T07:42:27.642Z,78.46
2023-03-16T07:45:09.192Z,83.20
2023-03-16T07:47:36.410Z,79.60
2023-03-16T07:50:11.708Z,81.97
2023-03-16T07:52:41.831Z,86.28
2023-03-16T07:55:08.749Z,89.84
2023-03-16T07:57:35.309Z,96.32
2023-03-16T08:00:05.190Z,100.00
2023-03-16T08:02:39.905Z,100.00
2023-03-16T08:05:13.056Z,100.00
2023-03-16T08:07:43.651Z,100.00
2023-03-16T08:10:14.297Z,100.00
2023-03-16T08:12:48.278Z,100.00
2023-03-16T08:15:15.656Z,100.00
2023-03-16T08:17:43.734Z,100.00
2023-03-16T08:20:15.506Z,100.00
2023-03-16T08:22:46.060Z,100.00
2023-03-16T08:25:15.438Z,100.00
2023-03-16T08:27:53.011Z,100.00
2023-03-16T08:30:19.726Z,100.00
2023-03-16T08:32:54.531Z,100.00
2023-03-16T08:35:21.129Z,100.00
2023-03-16T08:37:49.473Z,100.00
2023-03-16T08:40:19.124Z,100.00
2023-03-16T08:42:50.028Z,100.00
2023-03-16T08:45:17.497Z,100.00
2023-03-16T08:47:44.536Z,100.00
2023-03-16T08:50:13.480Z,100.00
2023-03-16T08:52:41.399Z,100.00
2023-03-16T08:55:10.805Z,100.00
2023-03-16T08:57:39.267Z,100.00
2023-03-16T09:00:12.866Z,100.00
2023-03-16T09:02:43.413Z,100.00
2023-03-16T09:05:12.445Z,100.00
2023-03-16T09:07:39.414Z,100.00
2023-03-16T09:10:13.274Z,100.00
2023-03-16T09:12:40.802Z,100.00
2023-03-16T09:15:07.896Z,100.00
2023-03-16T09:17:35.507Z,100.00
2023-03-16T09:20:19.355Z,100.00
2023-03-16T09:22:48.203Z,100.00
2023-03-16T09:25:15.491Z,100.00
2023-03-16T09:27:42.597Z,100.00
2023-03-16T09:30:10.268Z,100.00
2023-03-16T09:32:37.474Z,100.00
2023-03-16T09:35:06.262Z,100.00
2023-03-16T09:37:44.635Z,100.00
2023-03-16T09:40:25.489Z,100.00
2023-03-16T09:43:37.662Z,100.00
2023-03-16T09:46:16.439Z,100.00
2023-03-16T09:48:43.478Z,100.00
2023-03-16T09:51:23.471Z,100.00
2023-03-16T09:53:56.607Z,100.00
2023-03-16T09:56:33.628Z,100.00
2023-03-16T09:59:00.773Z,100.00
2023-03-16T10:01:48.214Z,100.00
2023-03-16T10:04:37.739Z,100.00
2023-03-16T10:07:18.436Z,100.00
2023-03-16T10:09:54.470Z,100.00
2023-03-16T10:12:24.205Z,100.00
2023-03-16T10:15:00.621Z,100.00
2023-03-16T10:18:01.176Z,100.00
2023-03-16T10:20:33.285Z,100.00
2023-03-16T10:23:05.982Z,100.00
2023-03-16T10:25:51.746Z,100.00
2023-03-16T10:28:28.742Z,100.00
2023-03-16T10:30:57.967Z,100.00
2023-03-16T10:33:26.458Z,100.00
2023-03-16T10:36:15.646Z,100.00
2023-03-16T10:38:46.665Z,100.00
2023-03-16T10:41:21.636Z,100.00
2023-03-16T10:43:52.639Z,100.00
2023-03-16T10:46:19.490Z,100.00
2023-03-16T10:48:54.773Z,100.00
2023-03-16T10:51:26.038Z,100.00
2023-03-16T10:53:52.837Z,100.00
2023-03-16T10:56:22.800Z,100.00
2023-03-16T10:58:49.752Z,100.00
2023-03-16T11:01:27.722Z,98.63
2023-03-16T11:03:58.620Z,96.78
2023-03-16T11:06:30.780Z,96.49
2023-03-16T11:09:12.979Z,98.30
2023-03-16T11:11:39.788Z,97.80
2023-03-16T11:14:15.382Z,99.11
2023-03-16T11:16:55.453Z,95.48
2023-03-16T11:19:27.177Z,90.88
2023-03-16T11:21:57.466Z,92.06
2023-03-16T11:24:50.899Z,91.96
2023-03-16T11:27:26.357Z,90.69
2023-03-16T11:30:23.809Z,93.20
2023-03-16T11:32:53.536Z,94.36
2023-03-16T11:35:37.154Z,91.09
2023-03-16T11:38:18.518Z,91.43
2023-03-16T11:41:04.731Z,86.94
2023-03-16T11:43:53.507Z,89.31
2023-03-16T11:46:42.556Z,89.52
2023-03-16T11:49:53.138Z,89.84
2023-03-16T11:52:32.001Z,90.24
2023-03-16T11:55:18.292Z,91.86
2023-03-16T11:58:03.425Z,91.25
2023-03-16T12:00:42.788Z,91.90
2023-03-16T12:03:24.739Z,92.40
2023-03-16T12:06:22.345Z,93.31
2023-03-16T12:09:20.959Z,92.13
2023-03-16T12:12:04.701Z,92.07
2023-03-16T12:14:46.035Z,89.48
2023-03-16T12:17:20.985Z,88.16
2023-03-16T12:20:05.785Z,90.60
2023-03-16T12:22:44.374Z,87.01
2023-03-16T12:25:31.736Z,86.85
2023-03-16T12:28:02.134Z,87.97
2023-03-16T12:30:50.508Z,87.33
2023-03-16T12:33:35.885Z,83.36
2023-03-16T12:36:28.967Z,83.88
2023-03-16T12:39:18.668Z,83.97
2023-03-16T12:41:48.949Z,76.38
2023-03-16T12:44:20.993Z,80.26
2023-03-16T12:47:03.403Z,81.71
2023-03-16T12:49:33.666Z,86.46
2023-03-16T12:52:07.010Z,84.93
2023-03-16T12:54:34.099Z,83.52
2023-03-16T12:57:09.121Z,81.21
2023-03-16T12:59:40.165Z,79.03
2023-03-16T13:02:14.605Z,78.84
2023-03-16T13:04:44.664Z,78.09
2023-03-16T13:07:24.051Z,77.86
2023-03-16T13:09:58.880Z,78.09
2023-03-16T13:12:28.808Z,77.09
2023-03-16T13:14:55.904Z,70.25
2023-03-16T13:17:28.710Z,70.25
2023-03-16T13:20:30.854Z,68.14
2023-03-16T13:23:22.255Z,71.56
2023-03-16T13:26:15.296Z,68.72
2023-03-16T13:28:45.285Z,69.38
2023-03-16T13:31:27.557Z,71.67
2023-03-16T13:33:56.797Z,69.16
2023-03-16T13:36:25.330Z,66.20
2023-03-16T13:39:13.433Z,66.07
2023-03-16T13:41:41.714Z,64.14
2023-03-16T13:44:15.289Z,64.06
2023-03-16T13:46:41.820Z,65.96
2023-03-16T13:49:12.170Z,66.46
2023-03-16T13:51:38.740Z,61.85
2023-03-16T13:54:19.315Z,61.46
2023-03-16T13:56:45.894Z,61.70
2023-03-16T13:59:13.388Z,59.62
2023-03-16T14:01:44.495Z,60.05
2023-03-16T14:04:18.699Z,61.16
2023-03-16T14:06:54.960Z,60.02
2023-03-16T14:09:25.592Z,59.35
2023-03-16T14:11:52.174Z,60.82
2023-03-16T14:14:26.307Z,61.97
2023-03-16T14:16:54.616Z,59.79
2023-03-16T14:19:25.762Z,58.95
2023-03-16T14:21:52.323Z,57.40
2023-03-16T14:24:46.779Z,56.48
2023-03-16T14:27:21.763Z,57.87
2023-03-16T14:30:09.441Z,58.53
2023-03-16T14:32:35.938Z,54.42
2023-03-16T14:35:25.508Z,55.24
2023-03-16T14:37:52.063Z,53.61
2023-03-16T14:40:27.044Z,56.14
2023-03-16T14:42:55.856Z,58.33
2023-03-16T14:45:23.634Z,60.43
2023-03-16T14:47:50.682Z,58.54
2023-03-16T14:50:25.833Z,58.58
2023-03-16T14:52:55.715Z,57.13
2023-03-16T14:55:23.885Z,57.23
2023-03-16T14:57:53.958Z,57.22
2023-03-16T15:00:21.968Z,57.46
2023-03-16T15:02:59.311Z,58.12
2023-03-16T15:05:36.714Z,58.25
2023-03-16T15:08:05.543Z,57.81
2023-03-16T15:10:35.256Z,54.90
2023-03-16T15:13:12.747Z,55.71
2023-03-16T15:15:44.088Z,52.79
2023-03-16T15:18:10.822Z,54.15
2023-03-16T15:20:43.358Z,54.70
2023-03-16T15:23:14.626Z,53.66
2023-03-16T15:25:43.216Z,52.40
2023-03-16T15:28:15.720Z,52.09
2023-03-16T15:30:44.614Z,54.08
2023-03-16T15:33:12.769Z,56.33
2023-03-16T15:35:40.476Z,58.36
2023-03-16T15:38:20.400Z,58.46
2023-03-16T15:40:48.103Z,59.35
2023-03-16T15:43:16.988Z,58.47
2023-03-16T15:45:44.017Z,59.18
2023-03-16T15:48:11.897Z,59.78
2023-03-16T15:50:40.924Z,58.25
2023-03-16T15:53:29.929Z,58.72
2023-03-16T15:56:09.605Z,58.94
2023-03-16T15:58:38.035Z,57.31
2023-03-16T16:01:06.789Z,59.57
2023-03-16T16:03:33.949Z,59.28
2023-03-16T16:06:01.174Z,59.03
2023-03-16T16:08:27.822Z,60.35
2023-03-16T16:10:55.496Z,58.80
2023-03-16T16:13:43.767Z,59.16
2023-03-16T16:16:17.697Z,60.14
2023-03-16T16:18:46.546Z,58.47
2023-03-16T16:21:35.795Z,61.24
2023-03-16T16:24:03.126Z,60.90
2023-03-16T16:26:49.033Z,61.25
2023-03-16T16:29:24.017Z,61.21
2023-03-16T16:31:53.917Z,62.31
2023-03-16T16:34:24.446Z,62.74
2023-03-16T16:36:51.332Z,63.36
2023-03-16T16:39:17.803Z,61.94
2023-03-16T16:41:44.855Z,56.50
2023-03-16T16:44:18.468Z,59.15
2023-03-16T16:46:45.693Z,56.88
2023-03-16T16:49:17.908Z,57.19
2023-03-16T16:51:44.545Z,58.53
2023-03-16T16:54:17.118Z,58.42
2023-03-16T16:56:44.620Z,57.90
2023-03-16T16:59:20.331Z,59.74
2023-03-16T17:01:48.821Z,58.94
2023-03-16T17:04:23.200Z,60.05
2023-03-16T17:07:11.606Z,59.60
2023-03-16T17:09:42.710Z,60.38
2023-03-16T17:12:17.440Z,59.96
2023-03-16T17:14:44.524Z,60.86
2023-03-16T17:17:19.057Z,61.46
2023-03-16T17:19:50.150Z,60.92
2023-03-16T17:22:30.267Z,61.00
2023-03-16T17:24:56.815Z,61.78
2023-03-16T17:27:29.350Z,62.59
2023-03-16T17:29:57.594Z,63.67
2023-03-16T17:32:24.552Z,63.51
2023-03-16T17:34:52.191Z,63.61
2023-03-16T17:37:22.069Z,63.68
2023-03-16T17:39:48.917Z,64.45
2023-03-16T17:42:18.489Z,64.73
2023-03-16T17:44:47.441Z,65.22
2023-03-16T17:47:28.027Z,66.43
2023-03-16T17:49:55.285Z,66.04
2023-03-16T17:52:24.038Z,66.22
2023-03-16T17:54:52.407Z,66.36
2023-03-16T17:57:33.446Z,66.38
2023-03-16T18:00:01.521Z,65.73
2023-03-16T18:02:40.226Z,66.30
2023-03-16T18:05:25.444Z,66.34
2023-03-16T18:07:53.482Z,67.47
2023-03-16T18:10:24.269Z,67.56
2023-03-16T18:12:59.276Z,66.48
2023-03-16T18:15:29.384Z,67.62
2023-03-16T18:17:56.008Z,65.90
2023-03-16T18:20:32.828Z,65.35
2023-03-16T18:23:01.790Z,67.03
2023-03-16T18:25:31.645Z,65.43
2023-03-16T18:27:58.116Z,67.04
2023-03-16T18:30:27.096Z,65.59
2023-03-16T18:32:55.142Z,64.29
2023-03-16T18:35:22.103Z,65.16
2023-03-16T18:37:48.838Z,65.87
2023-03-16T18:40:18.132Z,67.86
2023-03-16T18:42:45.600Z,67.32
2023-03-16T18:45:18.125Z,67.41
2023-03-16T18:47:50.469Z,67.60
2023-03-16T18:50:28.048Z,68.57
2023-03-16T18:52:55.386Z,67.08
2023-03-16T18:55:24.056Z,68.10
2023-03-16T18:57:52.754Z,67.28
2023-03-16T19:00:26.441Z,69.33
2023-03-16T19:02:56.294Z,68.92
2023-03-16T19:05:37.888Z,68.16
2023-03-16T19:08:05.071Z,68.81
2023-03-16T19:10:38.012Z,69.28
2023-03-16T19:13:14.523Z,70.16
2023-03-16T19:15:41.358Z,69.82
2023-03-16T19:18:08.073Z,68.89
2023-03-16T19:20:35.174Z,69.63
2023-03-16T19:23:17.031Z,70.15
2023-03-16T19:25:43.846Z,71.64
2023-03-16T19:28:15.199Z,71.34
2023-03-16T19:30:42.037Z,72.14
2023-03-16T19:33:19.392Z,73.61
2023-03-16T19:35:51.739Z,73.65
2023-03-16T19:38:20.692Z,73.10
2023-03-16T19:40:54.459Z,72.93
2023-03-16T19:43:21.581Z,73.20
2023-03-16T19:45:49.241Z,73.41
2023-03-16T19:48:20.981Z,73.47
2023-03-16T19:50:49.252Z,73.42
2023-03-16T19:53:18.638Z,73.86
2023-03-16T19:55:49.739Z,75.19
2023-03-16T19:58:29.474Z,76.19
2023-03-16T20:00:56.565Z,75.82
2023-03-16T20:03:23.113Z,76.79
2023-03-16T20:05:49.592Z,76.07
2023-03-16T20:08:28.559Z,76.62
2023-03-16T20:11:06.444Z,77.07
2023-03-16T20:13:36.267Z,76.88
2023-03-16T20:16:03.420Z,77.22
2023-03-16T20:18:30.115Z,77.92
2023-03-16T20:20:57.494Z,78.85
2023-03-16T20:23:27.097Z,78.37
2023-03-16T20:25:56.628Z,79.06
2023-03-16T20:28:36.965Z,80.50
2023-03-16T20:31:07.881Z,79.10
2023-03-16T20:33:34.660Z,80.47
2023-03-16T20:36:01.186Z,80.34
2023-03-16T20:38:27.651Z,81.41
2023-03-16T20:40:54.747Z,81.35
2023-03-16T20:43:27.481Z,81.05
2023-03-16T20:45:57.315Z,82.25
2023-03-16T20:48:27.552Z,81.98
2023-03-16T20:50:56.010Z,83.22
2023-03-16T20:53:23.371Z,83.67
2023-03-16T20:55:50.614Z,83.75
2023-03-16T20:58:24.437Z,83.95
2023-03-16T21:00:54.456Z,83.50
2023-03-16T21:03:23.359Z,84.55
2023-03-16T21:05:51.681Z,84.96
2023-03-16T21:08:19.404Z,85.62
2023-03-16T21:10:48.389Z,85.64
2023-03-16T21:13:20.325Z,87.21
2023-03-16T21:15:49.959Z,87.90
2023-03-16T21:18:19.769Z,88.40
2023-03-16T21:20:48.092Z,88.11
2023-03-16T21:23:18.079Z,89.60
2023-03-16T21:25:59.428Z,89.71
2023-03-16T21:28:28.803Z,90.27
2023-03-16T21:30:57.609Z,90.99
2023-03-16T21:33:37.183Z,91.56
2023-03-16T21:36:08.015Z,92.30
2023-03-16T21:38:36.527Z,92.53
2023-03-16T21:41:03.077Z,91.73
2023-03-16T21:43:31.123Z,91.08
2023-03-16T21:45:57.994Z,92.09
2023-03-16T21:48:29.726Z,92.56
2023-03-16T21:50:56.894Z,92.36
2023-03-16T21:53:26.999Z,92.61
2023-03-16T21:55:54.586Z,92.96
2023-03-16T21:58:23.456Z,93.18
2023-03-16T22:00:51.934Z,94.33
2023-03-16T22:03:24.666Z,96.07
2023-03-16T22:05:52.191Z,95.50
2023-03-16T22:08:27.074Z,95.95
2023-03-16T22:10:54.579Z,96.33
2023-03-16T22:13:21.824Z,96.78
2023-03-16T22:15:51.467Z,97.30
2023-03-16T22:18:35.775Z,97.21
2023-03-16T22:21:15.586Z,96.19
2023-03-16T22:23:42.180Z,96.59
2023-03-16T22:26:16.107Z,97.20
2023-03-16T22:28:42.980Z,97.54
2023-03-16T22:31:15.240Z,97.72
2023-03-16T22:33:43.224Z,98.78
2023-03-16T22:36:16.587Z,98.79
2023-03-16T22:38:43.736Z,98.63
2023-03-16T22:41:15.682Z,99.12
2023-03-16T22:43:44.697Z,99.83
2023-03-16T22:46:23.439Z,100.00
2023-03-16T22:48:51.430Z,100.00
2023-03-16T22:51:34.733Z,100.00
2023-03-16T22:54:11.054Z,100.00
2023-03-16T22:56:46.017Z,100.00
2023-03-16T22:59:18.813Z,100.00
2023-03-16T23:01:48.668Z,100.00
2023-03-16T23:04:25.052Z,100.00
2023-03-16T23:06:53.378Z,100.00
2023-03-16T23:09:21.763Z,100.00
2023-03-16T23:11:53.505Z,100.00
2023-03-16T23:14:22.878Z,100.00
2023-03-16T23:16:51.881Z,100.00
2023-03-16T23:19:34.043Z,100.00
2023-03-16T23:22:04.489Z,100.00
2023-03-16T23:24:32.405Z,100.00
2023-03-16T23:26:59.433Z,100.00
2023-03-16T23:29:26.761Z,100.00
2023-03-16T23:31:53.866Z,100.00
2023-03-16T23:34:23.438Z,100.00
2023-03-16T23:36:50.886Z,100.00
2023-03-16T23:39:17.768Z,100.00
2023-03-16T23:41:48.079Z,100.00
2023-03-16T23:44:19.231Z,100.00
2023-03-16T23:46:45.818Z,100.00
2023-03-16T23:49:19.807Z,100.00
2023-03-16T23:51:46.513Z,100.00
2023-03-16T23:54:19.775Z,100.00
2023-03-16T23:56:46.287Z,100.00
2023-03-16T23:59:16.512Z,100.00
